Time;durP1;ratioP1;P1;durP2;ratioP2;P2;SDS_P1;SDS_P2;PMS_P1;PMS_P2;Temp;Humidity;BMP_temperature;BMP_pressure;BME280_temperature;BME280_humidity;BME280_pressure;Samples;Min_cycle;Max_cycle;Signal;HPM_P1;HPM_P2
2023/06/06 04:06:52;;;;;;;10.85;6.82;;;;;;;19.37;100.00;100560.16;5605750;31;82734;-58
2023/06/06 04:09:56;;;;;;;10.32;6.45;;;;;;;19.37;100.00;100560.16;5602729;31;34070;-59
2023/06/06 04:13:00;;;;;;;9.95;6.82;;;;;;;18.91;100.00;100564.72;5603394;31;33560;-59
2023/06/06 04:16:03;;;;;;;8.95;6.80;;;;;;;18.93;100.00;100562.47;5602671;31;33116;-57
2023/06/06 04:19:06;;;;;;;8.93;6.85;;;;;;;18.93;100.00;100567.09;5602794;31;33644;-56
2023/06/06 04:22:09;;;;;;;7.97;6.37;;;;;;;18.94;100.00;100568.69;5586193;31;33464;-56
2023/06/06 04:25:15;;;;;;;7.95;6.10;;;;;;;18.91;100.00;100567.44;5586608;31;33811;-57
2023/06/06 04:28:19;;;;;;;9.98;6.60;;;;;;;18.93;100.00;100561.66;5602255;31;33773;-56
2023/06/06 04:31:24;;;;;;;8.52;6.35;;;;;;;18.97;100.00;100560.69;5602855;31;33593;-57
2023/06/06 04:34:30;;;;;;;9.60;6.32;;;;;;;19.04;100.00;100554.72;5602674;31;33173;-57
2023/06/06 04:37:33;;;;;;;7.70;6.25;;;;;;;19.00;100.00;100557.28;5602562;31;33630;-57
2023/06/06 04:40:39;;;;;;;10.80;6.68;;;;;;;19.02;100.00;100548.81;5602090;31;33200;-56
2023/06/06 04:44:02;;;;;;;8.07;6.28;;;;;;;18.99;100.00;100550.25;5583201;32;33598;-56
2023/06/06 04:47:04;;;;;;;8.98;6.30;;;;;;;18.97;100.00;100551.72;5583313;31;33657;-57
2023/06/06 04:50:08;;;;;;;10.63;6.65;;;;;;;18.96;100.00;100555.56;5602601;31;33182;-56
2023/06/06 04:53:11;;;;;;;7.60;6.43;;;;;;;18.95;100.00;100551.28;5602288;31;34367;-56
2023/06/06 04:56:13;;;;;;;8.25;6.80;;;;;;;19.00;100.00;100557.28;5602150;31;34325;-56
2023/06/06 04:59:16;;;;;;;9.80;6.18;;;;;;;19.01;100.00;100555.37;5602224;31;33662;-56
2023/06/06 05:02:23;;;;;;;8.95;7.32;;;;;;;19.09;100.00;100562.66;5601952;31;34505;-57
2023/06/06 05:05:26;;;;;;;7.68;6.40;;;;;;;19.18;100.00;100560.66;5602048;31;34389;-56
2023/06/06 05:08:31;;;;;;;10.20;7.37;;;;;;;19.09;100.00;100551.78;5602073;31;33417;-56
2023/06/06 05:11:34;;;;;;;7.97;7.18;;;;;;;19.10;100.00;100555.28;5602421;31;34235;-56
2023/06/06 05:14:37;;;;;;;8.07;6.80;;;;;;;19.15;100.00;100555.09;5602276;31;34228;-56
2023/06/06 05:17:54;;;;;;;9.48;7.60;;;;;;;19.18;100.00;100557.16;5591317;31;34301;-56
2023/06/06 05:21:00;;;;;;;10.90;7.70;;;;;;;19.19;100.00;100559.53;5589051;31;33616;-56
2023/06/06 05:24:03;;;;;;;11.27;7.50;;;;;;;19.20;100.00;100557.59;5588866;31;33564;-56
2023/06/06 05:27:05;;;;;;;8.88;7.28;;;;;;;19.15;100.00;100565.97;5588548;31;33697;-56
2023/06/06 05:30:08;;;;;;;13.88;9.73;;;;;;;19.15;100.00;100565.97;5577040;31;34239;-56
2023/06/06 05:33:10;;;;;;;9.32;8.00;;;;;;;19.14;100.00;100564.34;5582767;31;33663;-56
2023/06/06 05:36:13;;;;;;;8.70;7.78;;;;;;;19.16;100.00;100568.34;5574132;31;33577;-57
2023/06/06 05:39:15;;;;;;;9.45;8.30;;;;;;;19.22;100.00;100577.88;5579196;31;33641;-57
2023/06/06 05:42:24;;;;;;;;;;;;;;;19.23;100.00;100575.94;5588503;31;33764;-58
2023/06/06 05:45:26;;;;;;;11.18;8.75;;;;;;;19.34;100.00;100579.06;5589050;31;34573;-57
2023/06/06 05:48:29;;;;;;;10.18;8.73;;;;;;;19.29;100.00;100577.34;5588470;31;34968;-57
2023/06/06 05:51:31;;;;;;;11.77;8.95;;;;;;;19.37;100.00;100575.66;5586843;31;33810;-57
2023/06/06 05:54:34;;;;;;;10.77;8.38;;;;;;;19.41;100.00;100579.31;5579173;31;32116;-57
2023/06/06 05:57:50;;;;;;;10.65;9.55;;;;;;;19.51;100.00;100573.47;5583835;31;33670;-58
2023/06/06 06:00:53;;;;;;;13.88;9.25;;;;;;;19.40;100.00;100572.28;5576742;31;33636;-57
2023/06/06 06:03:56;;;;;;;12.07;9.32;;;;;;;19.32;100.00;100576.69;5575294;31;34293;-57
2023/06/06 06:07:00;;;;;;;9.65;8.57;;;;;;;19.39;100.00;100574.22;5583104;31;34207;-57
2023/06/06 06:10:03;;;;;;;12.52;9.32;;;;;;;19.46;100.00;100577.16;5584524;31;33607;-58
2023/06/06 06:13:06;;;;;;;14.32;9.15;;;;;;;19.53;100.00;100578.56;5582261;31;33425;-57
2023/06/06 06:16:09;;;;;;;11.63;9.45;;;;;;;19.45;100.00;100582.97;5584041;31;33612;-57
2023/06/06 06:19:12;;;;;;;13.65;10.13;;;;;;;19.51;100.00;100584.34;5587646;31;33193;-57
2023/06/06 06:22:14;;;;;;;14.95;10.68;;;;;;;19.47;100.00;100586.16;5587129;31;33536;-57
2023/06/06 06:25:18;;;;;;;15.88;10.65;;;;;;;19.45;100.00;100588.41;5586504;31;33635;-57
2023/06/06 06:28:22;;;;;;;15.35;11.02;;;;;;;19.47;100.00;100589.66;5586748;31;34828;-57
2023/06/06 06:31:24;;;;;;;12.82;10.88;;;;;;;19.46;100.00;100589.97;5588245;31;33662;-57
2023/06/06 06:34:26;;;;;;;12.73;11.00;;;;;;;19.45;100.00;100591.12;5587091;31;33563;-58
2023/06/06 06:37:30;;;;;;;14.50;12.00;;;;;;;19.56;100.00;100591.47;5584766;31;33731;-57
2023/06/06 06:40:32;;;;;;;16.77;12.80;;;;;;;19.54;100.00;100594.53;5578119;31;34005;-57
2023/06/06 06:43:35;;;;;;;13.05;11.75;;;;;;;19.60;100.00;100595.12;5585549;31;33258;-57
2023/06/06 06:46:43;;;;;;;14.98;13.45;;;;;;;19.66;100.00;100600.03;5581964;31;32281;-57
2023/06/06 06:49:48;;;;;;;17.85;14.38;;;;;;;19.61;100.00;100607.59;5585754;31;33610;-57
2023/06/06 06:52:53;;;;;;;17.60;14.75;;;;;;;19.67;100.00;100611.72;5584364;31;34262;-57
2023/06/06 06:55:55;;;;;;;19.77;15.77;;;;;;;19.66;100.00;100610.13;5581918;31;34335;-58
2023/06/06 06:58:58;;;;;;;19.02;16.48;;;;;;;19.64;100.00;100613.19;5587012;31;33673;-58
2023/06/06 07:02:02;;;;;;;20.25;16.95;;;;;;;19.68;100.00;100619.53;5576836;31;33142;-57
2023/06/06 07:05:05;;;;;;;19.58;16.65;;;;;;;19.67;100.00;100609.81;5580595;31;34343;-57
2023/06/06 07:08:08;;;;;;;20.33;17.70;;;;;;;19.65;100.00;100613.97;5585089;31;33564;-57
2023/06/06 07:11:10;;;;;;;20.85;18.73;;;;;;;19.72;100.00;100611.50;5586562;31;34307;-57
2023/06/06 07:14:13;;;;;;;22.65;18.27;;;;;;;19.74;100.00;100611.97;5584827;31;33547;-58
2023/06/06 07:17:16;;;;;;;20.95;18.52;;;;;;;19.69;100.00;100620.34;5584862;31;34261;-57
2023/06/06 07:20:21;;;;;;;21.83;19.08;;;;;;;19.77;100.00;100618.66;5585848;31;34261;-57
2023/06/06 07:23:24;;;;;;;24.65;19.95;;;;;;;19.78;100.00;100615.59;5587180;31;33180;-58
2023/06/06 07:26:27;;;;;;;23.02;20.73;;;;;;;19.76;100.00;100617.06;5586333;31;32515;-57
2023/06/06 07:29:30;;;;;;;22.98;20.17;;;;;;;19.69;100.00;100615.69;5587146;31;33113;-57
2023/06/06 07:32:35;;;;;;;22.55;20.15;;;;;;;19.64;100.00;100612.41;5586368;31;34815;-58
2023/06/06 07:35:37;;;;;;;22.77;19.42;;;;;;;19.64;100.00;100615.91;5586216;31;34282;-58
2023/06/06 07:38:40;;;;;;;24.05;20.88;;;;;;;19.66;100.00;100613.63;5581847;31;33039;-58
2023/06/06 07:41:43;;;;;;;22.42;20.12;;;;;;;19.71;100.00;100612.63;5586279;31;34441;-58
2023/06/06 07:44:45;;;;;;;21.33;19.12;;;;;;;19.78;100.00;100617.53;5584211;31;33301;-58
2023/06/06 07:47:48;;;;;;;24.87;20.70;;;;;;;19.71;100.00;100608.00;5586288;31;34235;-58
2023/06/06 07:50:50;;;;;;;27.30;21.65;;;;;;;19.70;100.00;100606.41;5586537;31;33764;-57
2023/06/06 07:53:53;;;;;;;22.75;20.30;;;;;;;19.74;100.00;100611.97;5586751;31;33687;-57
2023/06/06 07:56:56;;;;;;;25.45;21.12;;;;;;;19.82;100.00;100605.63;5586030;31;33646;-58
2023/06/06 07:59:58;;;;;;;24.20;21.62;;;;;;;19.84;100.00;100603.37;5567322;32;33196;-58
2023/06/06 08:03:01;;;;;;;21.98;19.10;;;;;;;19.89;100.00;100602.34;5578651;31;34524;-58
2023/06/06 08:06:04;;;;;;;21.05;17.83;;;;;;;19.95;100.00;100598.28;5577995;31;34305;-58
2023/06/06 08:09:07;;;;;;;21.02;18.42;;;;;;;19.95;100.00;100596.34;5577396;31;33652;-58
2023/06/06 08:12:11;;;;;;;22.80;20.00;;;;;;;20.09;100.00;100595.25;5586029;31;34320;-58
2023/06/06 08:15:14;;;;;;;25.58;21.33;;;;;;;20.10;100.00;100602.28;5585859;31;34372;-55
2023/06/06 08:18:17;;;;;;;21.27;18.10;;;;;;;20.19;100.00;100606.47;5575174;31;33258;-56
2023/06/06 08:21:20;;;;;;;24.83;21.83;;;;;;;20.18;100.00;100596.72;5585938;31;34319;-56
2023/06/06 08:24:23;;;;;;;26.08;22.90;;;;;;;20.12;100.00;100592.63;5586284;31;33647;-56
2023/06/06 08:27:25;;;;;;;25.65;22.55;;;;;;;20.11;100.00;100595.72;5583121;31;33613;-56
2023/06/06 08:30:28;;;;;;;24.80;20.90;;;;;;;20.15;100.00;100591.16;5584331;31;33745;-56
2023/06/06 08:33:30;;;;;;;25.52;22.45;;;;;;;20.27;100.00;100591.19;5579753;31;33695;-56
2023/06/06 08:36:33;;;;;;;26.23;22.00;;;;;;;20.23;100.00;100598.44;5585821;31;34301;-55
2023/06/06 08:39:35;;;;;;;26.17;23.42;;;;;;;20.25;100.00;100598.88;5583981;31;33692;-56
2023/06/06 08:42:44;;;;;;;26.00;21.48;;;;;;;20.25;100.00;100598.09;5584697;31;33546;-55
2023/06/06 08:45:56;;;;;;;26.98;22.98;;;;;;;20.30;100.00;100593.22;5580428;31;33667;-55
2023/06/06 08:49:06;;;;;;;27.02;22.50;;;;;;;20.27;100.00;100591.19;5586062;31;33862;-56
2023/06/06 08:52:09;;;;;;;24.75;22.15;;;;;;;20.38;100.00;100596.97;5585996;31;33638;-55
2023/06/06 08:55:12;;;;;;;18.75;16.85;;;;;;;20.34;100.00;100591.41;5582478;31;33742;-56
2023/06/06 08:58:15;;;;;;;26.37;23.38;;;;;;;20.33;100.00;100587.09;5582712;31;33593;-56
2023/06/06 09:01:21;;;;;;;21.60;17.73;;;;;;;20.32;100.00;100590.16;5582572;31;33692;-55
2023/06/06 09:04:24;;;;;;;25.75;23.02;;;;;;;20.47;100.00;100578.56;5587547;31;33661;-57
2023/06/06 09:07:26;;;;;;;25.60;22.60;;;;;;;20.61;100.00;100575.53;5588721;31;34898;-55
2023/06/06 09:10:28;;;;;;;29.98;25.55;;;;;;;20.58;98.41;100582.44;5586972;31;33677;-56
2023/06/06 09:13:31;;;;;;;26.10;23.35;;;;;;;20.62;100.00;100586.06;5586710;31;34388;-56
2023/06/06 09:16:34;;;;;;;27.83;24.92;;;;;;;20.80;98.69;100575.72;5586960;31;34275;-55
2023/06/06 09:19:36;;;;;;;27.00;24.25;;;;;;;20.92;96.06;100574.09;5587614;31;33800;-56
2023/06/06 09:22:41;;;;;;;28.55;24.12;;;;;;;21.01;96.35;100578.25;5588407;31;33283;-55
2023/06/06 09:25:49;;;;;;;23.87;21.37;;;;;;;21.22;100.00;100580.00;5586953;31;33971;-55
2023/06/06 09:28:53;;;;;;;26.87;22.05;;;;;;;21.33;93.51;100572.94;5587629;31;34307;-56
2023/06/06 09:32:00;;;;;;;24.85;20.75;;;;;;;21.54;93.97;100567.28;5588030;31;33716;-55
2023/06/06 09:35:04;;;;;;;23.45;21.05;;;;;;;21.52;92.23;100567.62;5587988;31;33684;-55
2023/06/06 09:38:18;;;;;;;22.17;19.62;;;;;;;21.61;93.64;100566.66;5587298;31;33660;-56
2023/06/06 09:41:21;;;;;;;23.98;21.50;;;;;;;21.75;88.69;100569.75;5587603;31;34804;-55
2023/06/06 09:44:28;;;;;;;21.73;19.50;;;;;;;21.83;89.05;100566.06;5587048;31;33605;-55
2023/06/06 09:47:31;;;;;;;23.80;21.30;;;;;;;21.91;83.93;100576.00;5587796;31;34245;-56
2023/06/06 09:50:34;;;;;;;25.92;23.17;;;;;;;21.87;89.95;100572.41;5587564;31;33775;-55
2023/06/06 09:53:36;;;;;;;27.27;24.27;;;;;;;21.84;88.80;100566.88;5586365;31;33277;-56
2023/06/06 09:56:42;;;;;;;25.83;23.23;;;;;;;21.81;92.56;100569.13;5585841;31;34437;-56
2023/06/06 09:59:48;;;;;;;24.85;22.27;;;;;;;21.77;91.46;100564.75;5588005;31;33696;-56
2023/06/06 10:02:52;;;;;;;25.40;22.87;;;;;;;21.75;91.74;100562.34;5583215;31;34060;-56
2023/06/06 10:05:58;;;;;;;21.65;19.45;;;;;;;21.84;92.60;100559.47;5577799;31;33292;-55
2023/06/06 10:09:02;;;;;;;18.33;16.62;;;;;;;21.91;89.68;100548.72;5577269;31;33671;-56
2023/06/06 10:12:06;;;;;;;15.50;13.93;;;;;;;22.13;88.79;100546.53;5578746;31;33603;-57
2023/06/06 10:15:10;;;;;;;20.48;16.10;;;;;;;22.18;85.67;100546.25;5573979;31;33831;-55
2023/06/06 10:18:14;;;;;;;17.42;15.77;;;;;;;22.17;84.30;100547.41;5575530;31;33732;-56
2023/06/06 10:21:17;;;;;;;16.45;14.95;;;;;;;22.17;85.40;100537.28;5576768;31;34310;-55
2023/06/06 10:24:20;;;;;;;15.70;14.05;;;;;;;22.11;88.54;100544.12;5582085;31;34350;-56
2023/06/06 10:27:28;;;;;;;14.85;13.32;;;;;;;22.01;88.82;100540.00;5587954;31;33604;-55
2023/06/06 10:30:43;;;;;;;14.50;12.98;;;;;;;21.99;87.18;100534.12;5586161;31;34344;-56
2023/06/06 10:33:53;;;;;;;13.35;9.07;;;;;;;21.92;89.08;100539.41;5584538;31;34338;-55
2023/06/06 10:36:57;;;;;;;10.20;8.27;;;;;;;22.04;85.00;100538.50;5587345;31;34027;-55
2023/06/06 10:40:09;;;;;;;11.32;8.77;;;;;;;22.07;84.11;100542.47;5588072;31;34453;-56
2023/06/06 10:43:12;;;;;;;9.32;8.05;;;;;;;22.01;85.94;100539.22;5587202;31;34313;-56
2023/06/06 10:46:34;;;;;;;10.02;9.02;;;;;;;21.93;87.30;100537.47;5569483;31;33854;-55
2023/06/06 10:49:37;;;;;;;10.57;9.35;;;;;;;21.88;88.45;100540.44;5571441;31;33882;-57
2023/06/06 10:53:07;;;;;;;9.57;8.15;;;;;;;21.97;85.41;100541.84;5587580;31;33725;-56
2023/06/06 10:56:32;;;;;;;10.27;7.75;;;;;;;21.86;85.26;100540.81;5586131;31;33607;-55
2023/06/06 10:59:34;;;;;;;11.32;7.55;;;;;;;21.76;83.17;100535.87;5581496;31;34283;-55
2023/06/06 11:02:39;;;;;;;9.80;7.50;;;;;;;21.75;84.05;100532.34;5587663;31;33464;-55
2023/06/06 11:06:00;;;;;;;14.02;8.07;;;;;;;21.64;85.20;100538.69;5582754;31;33639;-55
2023/06/06 11:09:17;;;;;;;7.95;7.10;;;;;;;21.46;86.64;100543.69;5577610;31;33674;-55
2023/06/06 11:12:19;;;;;;;9.90;8.00;;;;;;;21.46;86.30;100552.66;5586873;31;33774;-56
2023/06/06 11:15:31;;;;;;;7.97;7.07;;;;;;;21.49;86.11;100551.97;5584739;31;33592;-56
2023/06/06 11:18:40;;;;;;;8.23;7.03;;;;;;;21.56;88.09;100560.34;5574456;31;33932;-56
2023/06/06 11:21:47;;;;;;;10.52;6.78;;;;;;;21.62;89.27;100549.94;5580951;31;33728;-55
2023/06/06 11:24:55;;;;;;;6.40;5.35;;;;;;;21.58;92.06;100557.25;5584779;31;34369;-55
2023/06/06 11:27:58;;;;;;;8.43;6.25;;;;;;;21.52;91.03;100554.00;5582463;31;33751;-56
2023/06/06 11:31:02;;;;;;;9.20;6.05;;;;;;;21.37;94.76;100554.75;5585609;31;34465;-55
2023/06/06 11:34:14;;;;;;;9.00;6.20;;;;;;;21.53;89.72;100552.84;5582625;31;33956;-55
2023/06/06 11:37:16;;;;;;;8.70;6.32;;;;;;;21.38;90.84;100556.31;5585808;31;33861;-55
2023/06/06 11:40:19;;;;;;;6.68;5.70;;;;;;;21.21;93.68;100557.41;5576598;31;34432;-55
2023/06/06 11:43:22;;;;;;;10.38;6.72;;;;;;;21.02;95.16;100560.75;5581383;31;33244;-55
2023/06/06 11:46:25;;;;;;;9.13;6.03;;;;;;;21.00;94.86;100579.41;5587145;31;33638;-56
2023/06/06 11:49:27;;;;;;;7.95;5.60;;;;;;;20.89;93.41;100572.84;5584410;31;33785;-55
2023/06/06 11:52:30;;;;;;;8.13;5.43;;;;;;;20.82;93.94;100580.81;5582313;31;33559;-56
2023/06/06 11:55:36;;;;;;;9.65;5.53;;;;;;;20.64;94.40;100578.34;5582220;31;32342;-56
2023/06/06 11:58:41;;;;;;;7.93;6.12;;;;;;;20.45;97.52;100575.41;5568612;31;34401;-55
2023/06/06 12:01:52;;;;;;;11.30;6.70;;;;;;;20.18;97.34;100574.16;5573095;31;34488;-56
2023/06/06 12:04:56;;;;;;;11.32;7.32;;;;;;;20.12;100.00;100570.88;5576627;31;34425;-55
2023/06/06 12:07:59;;;;;;;8.73;7.15;;;;;;;20.20;100.00;100577.34;5583397;31;33382;-55
2023/06/06 12:11:29;;;;;;;9.27;7.30;;;;;;;20.15;100.00;100572.13;5584660;31;33560;-55
2023/06/06 12:14:34;;;;;;;12.70;7.75;;;;;;;20.29;100.00;100574.50;5580511;31;32273;-55
2023/06/06 12:17:40;;;;;;;;;;;;;;;20.06;100.00;100568.69;5583863;31;33718;-55
2023/06/06 12:20:42;;;;;;;14.02;8.20;;;;;;;20.08;100.00;100566.44;5578109;31;34585;-56
2023/06/06 12:23:45;;;;;;;10.70;7.87;;;;;;;20.24;100.00;100572.00;5576834;31;32292;-55
2023/06/06 12:27:05;;;;;;;15.18;8.63;;;;;;;20.23;100.00;100562.25;5572063;31;33642;-56
2023/06/06 12:30:08;;;;;;;11.40;8.85;;;;;;;20.29;100.00;100561.66;5583703;31;33643;-55
2023/06/06 12:33:10;;;;;;;12.10;8.85;;;;;;;20.23;100.00;100565.78;5588402;31;33699;-56
2023/06/06 12:36:15;;;;;;;12.70;8.95;;;;;;;20.31;100.00;100567.59;5587864;31;34374;-56
2023/06/06 12:39:18;;;;;;;10.15;8.68;;;;;;;20.44;100.00;100562.13;5571386;31;33760;-55
2023/06/06 12:42:20;;;;;;;10.55;8.52;;;;;;;20.41;100.00;100555.44;5588209;31;33692;-56
2023/06/06 12:45:25;;;;;;;13.62;8.98;;;;;;;20.38;100.00;100561.56;5580009;31;33388;-56
2023/06/06 12:48:27;;;;;;;13.48;9.60;;;;;;;20.37;100.00;100559.97;5581850;31;33139;-56
2023/06/06 12:51:30;;;;;;;15.18;9.10;;;;;;;20.46;100.00;100557.12;5585776;31;33638;-55
2023/06/06 12:54:40;;;;;;;11.70;9.05;;;;;;;20.50;100.00;100558.84;5581251;31;34419;-56
2023/06/06 12:57:47;;;;;;;10.32;8.82;;;;;;;20.57;100.00;100561.00;5588989;31;33792;-56
2023/06/06 13:00:50;;;;;;;10.73;9.30;;;;;;;20.66;100.00;100550.75;5587631;31;33778;-56
2023/06/06 13:03:52;;;;;;;12.40;9.85;;;;;;;20.75;100.00;100548.69;5589032;31;33751;-57
2023/06/06 13:06:55;;;;;;;14.27;9.40;;;;;;;20.66;100.00;100548.03;5583924;31;33676;-56
2023/06/06 13:09:59;;;;;;;12.13;9.63;;;;;;;20.68;100.00;100559.37;5579225;31;33691;-56
2023/06/06 13:13:02;;;;;;;13.82;10.05;;;;;;;20.80;100.00;100556.66;5588158;31;33597;-55
2023/06/06 13:16:04;;;;;;;12.48;10.50;;;;;;;20.77;100.00;100557.34;5570813;31;33634;-56
2023/06/06 13:19:07;;;;;;;12.93;9.65;;;;;;;20.79;100.00;100559.69;5578352;31;33766;-57
2023/06/06 13:22:09;;;;;;;16.55;10.23;;;;;;;20.76;100.00;100563.09;5587868;31;34286;-55
2023/06/06 13:25:12;;;;;;;13.13;10.18;;;;;;;20.70;100.00;100565.28;5588242;31;34408;-55
2023/06/06 13:28:15;;;;;;;15.07;10.13;;;;;;;20.71;100.00;100550.53;5588194;31;33665;-55
2023/06/06 13:31:18;;;;;;;12.43;10.23;;;;;;;20.68;100.00;100553.94;5584965;31;34691;-56
2023/06/06 13:34:20;;;;;;;11.35;10.15;;;;;;;20.65;100.00;100555.41;5587148;31;33665;-56
2023/06/06 13:37:23;;;;;;;12.75;9.95;;;;;;;20.60;100.00;100547.50;5587844;31;34355;-56
2023/06/06 13:40:26;;;;;;;15.07;10.07;;;;;;;20.63;100.00;100549.53;5587870;31;34244;-55
2023/06/06 13:43:28;;;;;;;12.32;10.13;;;;;;;20.52;100.00;100553.06;5587717;31;34038;-56
2023/06/06 13:46:30;;;;;;;12.60;9.93;;;;;;;20.59;100.00;100545.87;5589003;31;33244;-55
2023/06/06 13:49:47;;;;;;;16.33;10.65;;;;;;;20.53;100.00;100547.28;5585806;31;34402;-55
2023/06/06 13:52:49;;;;;;;11.45;10.25;;;;;;;20.53;100.00;100538.31;5588108;31;33906;-56
2023/06/06 13:55:53;;;;;;;11.50;10.30;;;;;;;20.56;100.00;100541.16;5588793;31;33587;-56
2023/06/06 13:58:55;;;;;;;14.70;10.50;;;;;;;20.58;100.00;100541.59;5584731;31;34477;-55
2023/06/06 14:01:58;;;;;;;16.15;10.98;;;;;;;20.59;100.00;100539.66;5586446;31;33290;-56
2023/06/06 14:05:00;;;;;;;13.48;11.27;;;;;;;20.58;100.00;100543.53;5586691;31;34518;-56
2023/06/06 14:08:03;;;;;;;12.50;11.18;;;;;;;20.52;100.00;100536.72;5586150;31;33973;-56
2023/06/06 14:11:07;;;;;;;13.55;11.30;;;;;;;20.52;100.00;100534.78;5588801;31;33722;-56
2023/06/06 14:14:09;;;;;;;13.32;11.95;;;;;;;20.59;100.00;100535.00;5588926;31;33743;-56
2023/06/06 14:17:12;;;;;;;18.48;12.57;;;;;;;20.59;100.00;100529.53;5588748;31;33563;-55
2023/06/06 14:20:20;;;;;;;17.70;12.27;;;;;;;20.61;100.00;100529.22;5588542;31;33715;-55
2023/06/06 14:23:23;;;;;;;17.92;12.95;;;;;;;20.64;100.00;100525.81;5588720;31;34022;-55
2023/06/06 14:26:26;;;;;;;14.65;12.68;;;;;;;20.64;100.00;100533.97;5588245;31;34084;-56
2023/06/06 14:29:28;;;;;;;18.20;12.85;;;;;;;20.58;100.00;100529.91;5579493;31;34375;-56
2023/06/06 14:32:31;;;;;;;16.73;12.40;;;;;;;20.54;100.00;100527.06;5584287;31;33644;-56
2023/06/06 14:35:35;;;;;;;16.42;13.75;;;;;;;20.65;100.00;100524.66;5588794;31;33601;-55
2023/06/06 14:38:40;;;;;;;15.82;14.23;;;;;;;20.67;100.00;100514.22;5589082;31;34397;-55
2023/06/06 14:41:42;;;;;;;20.48;14.68;;;;;;;20.71;100.00;100519.78;5588579;31;33500;-56
2023/06/06 14:44:44;;;;;;;15.73;13.13;;;;;;;20.71;100.00;100523.28;5588846;31;33403;-56
2023/06/06 14:47:47;;;;;;;15.75;13.60;;;;;;;20.70;99.12;100518.19;5588802;31;34450;-55
2023/06/06 14:50:49;;;;;;;16.95;13.90;;;;;;;20.69;100.00;100522.03;5587340;31;33689;-57
2023/06/06 14:53:52;;;;;;;17.42;13.38;;;;;;;20.69;100.00;100519.31;5588408;31;33668;-55
2023/06/06 14:56:54;;;;;;;16.02;14.35;;;;;;;20.69;99.77;100513.88;5587685;31;34379;-56
2023/06/06 14:59:56;;;;;;;19.33;14.35;;;;;;;20.78;99.34;100509.09;5588796;31;33597;-56
2023/06/06 15:02:59;;;;;;;18.05;14.07;;;;;;;20.74;100.00;100505.47;5588377;31;33622;-55
2023/06/06 15:06:02;;;;;;;19.10;15.40;;;;;;;20.69;100.00;100502.97;5587634;31;34341;-56
2023/06/06 15:09:05;;;;;;;20.02;15.00;;;;;;;20.66;99.52;100499.00;5587297;31;33360;-56
2023/06/06 15:12:11;;;;;;;18.50;15.15;;;;;;;20.65;99.66;100495.50;5587506;31;34505;-56
2023/06/06 15:15:15;;;;;;;19.15;15.23;;;;;;;20.70;96.93;100482.78;5588682;31;34310;-56
2023/06/06 15:18:18;;;;;;;20.92;15.45;;;;;;;20.63;99.55;100481.44;5588752;31;33590;-55
2023/06/06 15:21:21;;;;;;;19.42;16.90;;;;;;;20.66;97.90;100474.50;5588783;31;33761;-56
2023/06/06 15:24:28;;;;;;;17.70;15.63;;;;;;;20.63;99.92;100467.81;5588855;31;34391;-55
2023/06/06 15:27:31;;;;;;;18.85;15.40;;;;;;;20.61;99.54;100466.56;5588447;31;33374;-56
2023/06/06 15:30:34;;;;;;;20.25;16.12;;;;;;;20.63;98.01;100461.59;5587934;31;33712;-56
2023/06/06 15:33:36;;;;;;;19.17;15.60;;;;;;;20.61;98.63;100461.13;5588410;31;33770;-55
2023/06/06 15:36:39;;;;;;;17.70;14.55;;;;;;;20.59;99.42;100455.22;5588368;31;33608;-56
2023/06/06 15:39:43;;;;;;;17.45;14.90;;;;;;;20.58;98.31;100454.44;5588488;31;33712;-56
2023/06/06 15:42:46;;;;;;;18.02;14.85;;;;;;;20.55;99.84;100455.13;5588530;31;33679;-55
